ウダーチヌイ の空港の天気 - METARとTAF

Polyarny ( UERP / PYJ ) - ロシア ウダーチヌイ
飛行場実況気象(Metar)
観測時間05/29 08:00 YAKT (05/28 23:00 UTC)
風向・風速東北東 2m/s
視程10km以上
天気現象
なし
気温8℃
湿度39%
気圧1014hPa
METARUERP 282300Z 07002MPS CAVOK 08/M05 Q1014 RMK QFE716
過去の天気等 Google飛行場航空写真 Wunderground天気予報

過去48時間のMETAR

飛行場予報(TAF)
発表時間: 5/29 08:00 YAKT (5/28 23:00 UTC)
予報対象時間: 29日9時 YAKT ~ 30日9時 YAKT
風向・風速不定 1m/s
視程10km以上
全天の4割程度の雲 雲底高度 760m
全天の8割程度の雲 雲底高度 3050m
TAF UERP 282300Z 2900/2924 VRB01MPS 9999 SCT025 BKN100